createdAt,value
2016-10-27T00:00:31.868Z,10.72
2016-10-27T00:01:31.833Z,10.86
2016-10-27T00:02:31.808Z,10.9
2016-10-27T00:03:31.779Z,10.81
2016-10-27T00:04:31.748Z,10.84
2016-10-27T00:05:31.721Z,10.87
2016-10-27T00:06:31.724Z,10.79
2016-10-27T00:07:31.672Z,10.79
2016-10-27T00:08:31.673Z,10.89
2016-10-27T00:09:31.616Z,10.92
2016-10-27T00:10:31.585Z,10.86
2016-10-27T00:11:31.559Z,10.86
2016-10-27T00:12:31.526Z,10.87
2016-10-27T00:13:31.502Z,10.87
2016-10-27T00:14:31.477Z,10.87
2016-10-27T00:15:31.450Z,10.9
2016-10-27T00:16:31.421Z,10.94
2016-10-27T00:17:31.398Z,10.92
2016-10-27T00:18:31.367Z,10.87
2016-10-27T00:19:31.337Z,10.89
2016-10-27T00:20:31.314Z,10.89
2016-10-27T00:21:31.284Z,10.81
2016-10-27T00:22:31.260Z,10.84
2016-10-27T00:23:31.227Z,10.79
2016-10-27T00:24:31.217Z,10.79
2016-10-27T00:25:31.184Z,10.82
2016-10-27T00:26:31.149Z,10.82
2016-10-27T00:27:31.122Z,10.86
2016-10-27T00:28:31.098Z,10.86
2016-10-27T00:29:31.067Z,10.78
2016-10-27T00:30:31.038Z,10.79
2016-10-27T00:31:31.013Z,10.82
2016-10-27T00:32:31.015Z,10.84
2016-10-27T00:33:30.997Z,10.86
2016-10-27T00:34:30.924Z,10.82
2016-10-27T00:35:30.904Z,10.84
2016-10-27T00:36:30.876Z,10.84
2016-10-27T00:37:30.844Z,10.82
2016-10-27T00:38:30.816Z,10.86
2016-10-27T00:39:30.791Z,10.87
2016-10-27T00:40:30.764Z,10.82
2016-10-27T00:41:30.738Z,10.87
2016-10-27T00:42:30.708Z,10.87
2016-10-27T00:43:30.678Z,10.79
2016-10-27T00:44:30.656Z,10.78
2016-10-27T00:45:30.627Z,10.92
2016-10-27T00:46:30.599Z,10.89
2016-10-27T00:47:30.569Z,10.87
2016-10-27T00:48:30.543Z,10.87
2016-10-27T00:49:30.520Z,10.84
2016-10-27T00:50:30.492Z,10.96
2016-10-27T00:51:30.464Z,11
2016-10-27T00:52:30.445Z,10.99
2016-10-27T00:53:30.414Z,10.92
2016-10-27T00:54:30.383Z,10.99
2016-10-27T00:55:30.349Z,10.97
2016-10-27T00:56:30.321Z,10.99
2016-10-27T00:57:30.292Z,10.93
2016-10-27T00:58:30.268Z,10.9
2016-10-27T00:59:30.254Z,10.96
2016-10-27T01:00:30.213Z,11.02
2016-10-27T01:01:30.184Z,10.94
2016-10-27T01:02:30.160Z,10.96
2016-10-27T01:03:30.133Z,10.93
2016-10-27T01:04:30.114Z,10.92
2016-10-27T01:05:30.078Z,10.96
2016-10-27T01:06:30.051Z,10.99
2016-10-27T01:07:30.021Z,10.94
2016-10-27T01:08:29.990Z,10.93
2016-10-27T01:09:29.963Z,10.97
2016-10-27T01:10:29.943Z,10.94
2016-10-27T01:11:29.912Z,11.05
2016-10-27T01:12:29.881Z,10.96
2016-10-27T01:13:29.861Z,10.99
2016-10-27T01:14:29.831Z,11
2016-10-27T01:15:29.801Z,10.99
2016-10-27T01:16:29.777Z,10.97
2016-10-27T01:17:29.752Z,10.94
2016-10-27T01:18:29.729Z,10.97
2016-10-27T01:19:29.690Z,10.97
2016-10-27T01:20:29.672Z,11.1
2016-10-27T01:21:29.645Z,11.02
2016-10-27T01:22:29.914Z,10.93
2016-10-27T01:23:29.580Z,11.02
2016-10-27T01:24:29.556Z,11.05
2016-10-27T01:25:29.525Z,11.07
2016-10-27T01:26:29.507Z,11
2016-10-27T01:27:29.473Z,11.02
2016-10-27T01:28:29.447Z,11.07
2016-10-27T01:29:29.416Z,11.04
2016-10-27T01:30:29.388Z,11.07
2016-10-27T01:31:29.364Z,11.18
2016-10-27T01:32:29.338Z,11.15
2016-10-27T01:33:29.309Z,11.15
2016-10-27T01:34:29.280Z,11.17
2016-10-27T01:35:29.253Z,11.22
2016-10-27T01:36:29.231Z,11.25
2016-10-27T01:37:29.200Z,11.23
2016-10-27T01:38:29.172Z,11.29
2016-10-27T01:39:29.152Z,11.32
2016-10-27T01:40:29.114Z,11.35
2016-10-27T01:41:29.092Z,11.32
2016-10-27T01:42:29.065Z,11.32
2016-10-27T01:43:29.035Z,11.41
2016-10-27T01:44:29.013Z,11.43
2016-10-27T01:45:28.982Z,11.36
2016-10-27T01:46:28.952Z,11.3
2016-10-27T01:47:28.933Z,11.47
2016-10-27T01:48:28.907Z,11.41
2016-10-27T01:49:28.869Z,11.44
2016-10-27T01:50:28.849Z,11.43
2016-10-27T01:51:28.816Z,11.44
2016-10-27T01:52:28.802Z,11.48
2016-10-27T01:53:28.768Z,11.5
2016-10-27T01:54:28.737Z,11.47
2016-10-27T01:55:28.715Z,11.48
2016-10-27T01:56:28.684Z,11.5
2016-10-27T01:57:28.658Z,11.5
2016-10-27T01:58:28.632Z,11.43
2016-10-27T01:59:28.611Z,11.5
2016-10-27T02:00:28.689Z,11.45
2016-10-27T02:01:28.690Z,11.52
2016-10-27T02:02:28.766Z,11.45
2016-10-27T02:03:28.500Z,11.5
2016-10-27T02:04:28.471Z,11.51
2016-10-27T02:05:28.444Z,11.5
2016-10-27T02:06:28.419Z,11.54
2016-10-27T02:07:28.396Z,11.47
2016-10-27T02:08:28.370Z,11.57
2016-10-27T02:09:28.338Z,11.6
2016-10-27T02:10:28.316Z,11.51
2016-10-27T02:11:28.287Z,11.57
2016-10-27T02:12:28.261Z,11.47
2016-10-27T02:13:28.233Z,11.52
2016-10-27T02:14:28.204Z,11.54
2016-10-27T02:15:28.179Z,11.55
2016-10-27T02:16:28.155Z,11.59
2016-10-27T02:17:28.119Z,11.6
2016-10-27T02:18:28.095Z,11.57
2016-10-27T02:19:28.073Z,11.51
2016-10-27T02:20:28.043Z,11.57
2016-10-27T02:21:28.016Z,11.54
2016-10-27T02:22:27.989Z,11.5
2016-10-27T02:23:27.963Z,11.51
2016-10-27T02:24:27.933Z,11.45
2016-10-27T02:25:27.907Z,11.55
2016-10-27T02:26:27.886Z,11.59
2016-10-27T02:27:27.855Z,11.47
2016-10-27T02:28:27.825Z,11.5
2016-10-27T02:29:27.802Z,11.47
2016-10-27T02:30:27.774Z,11.54
2016-10-27T02:31:27.748Z,11.48
2016-10-27T02:32:27.721Z,11.44
2016-10-27T02:33:27.696Z,11.5
2016-10-27T02:34:27.669Z,11.47
2016-10-27T02:35:27.643Z,11.5
2016-10-27T02:36:27.612Z,11.48
2016-10-27T02:37:27.590Z,11.48
2016-10-27T02:38:27.557Z,11.48
2016-10-27T02:39:27.542Z,11.47
2016-10-27T02:40:27.511Z,11.44
2016-10-27T02:41:27.483Z,11.43
2016-10-27T02:42:27.450Z,11.54
2016-10-27T02:43:27.424Z,11.45
2016-10-27T02:44:27.402Z,11.51
2016-10-27T02:45:27.374Z,11.5
2016-10-27T02:46:27.345Z,11.48
2016-10-27T02:47:27.322Z,11.5
2016-10-27T02:48:27.291Z,11.43
2016-10-27T02:49:27.266Z,11.44
2016-10-27T02:50:27.243Z,11.5
2016-10-27T02:51:27.211Z,11.5
2016-10-27T02:52:27.185Z,11.4
2016-10-27T02:53:27.160Z,11.36
2016-10-27T02:54:27.130Z,11.45
2016-10-27T02:55:27.111Z,11.32
2016-10-27T02:56:27.097Z,11.4
2016-10-27T02:57:27.052Z,11.41
2016-10-27T02:58:27.022Z,11.4
2016-10-27T02:59:26.996Z,11.4
2016-10-27T03:00:26.968Z,11.45
2016-10-27T03:01:26.939Z,11.37
2016-10-27T03:02:26.911Z,11.36
2016-10-27T03:03:26.891Z,11.33
2016-10-27T03:04:26.855Z,11.43
2016-10-27T03:05:26.835Z,11.35
2016-10-27T03:06:26.805Z,11.35
2016-10-27T03:07:26.778Z,11.36
2016-10-27T03:08:26.756Z,11.4
2016-10-27T03:09:26.725Z,11.32
2016-10-27T03:10:26.697Z,11.29
2016-10-27T03:11:26.667Z,11.35
2016-10-27T03:12:26.641Z,11.29
2016-10-27T03:13:26.615Z,11.33
2016-10-27T03:14:26.598Z,11.32
2016-10-27T03:15:26.564Z,11.3
2016-10-27T03:16:26.538Z,11.35
2016-10-27T03:17:26.507Z,11.27
2016-10-27T03:18:26.483Z,11.35
2016-10-27T03:19:26.467Z,11.4
2016-10-27T03:20:26.433Z,11.36
2016-10-27T03:21:26.403Z,11.36
2016-10-27T03:22:26.376Z,11.32
2016-10-27T03:23:26.349Z,11.32
2016-10-27T03:24:26.321Z,11.4
2016-10-27T03:25:26.294Z,11.32
2016-10-27T03:26:26.269Z,11.37
2016-10-27T03:27:26.241Z,11.33
2016-10-27T03:28:26.216Z,11.48
2016-10-27T03:29:26.194Z,11.37
2016-10-27T03:30:26.163Z,11.41
2016-10-27T03:31:26.136Z,11.41
2016-10-27T03:32:26.404Z,11.43
2016-10-27T03:33:26.115Z,11.44
2016-10-27T03:34:26.054Z,11.35
2016-10-27T03:35:26.024Z,11.36
2016-10-27T03:36:26.002Z,11.44
2016-10-27T03:37:25.973Z,11.44
2016-10-27T03:38:25.947Z,11.45
2016-10-27T03:39:25.921Z,11.37
2016-10-27T03:40:25.892Z,11.47
2016-10-27T03:41:25.867Z,11.45
2016-10-27T03:42:25.840Z,11.43
2016-10-27T03:43:25.812Z,11.5
2016-10-27T03:44:25.786Z,11.55
2016-10-27T03:45:25.763Z,11.47
2016-10-27T03:46:25.737Z,11.51
2016-10-27T03:47:25.705Z,11.45
2016-10-27T03:48:25.679Z,11.47
2016-10-27T03:49:25.657Z,11.5
2016-10-27T03:50:25.634Z,11.4
2016-10-27T03:51:25.599Z,11.45
2016-10-27T03:52:25.571Z,11.51
2016-10-27T03:53:25.549Z,11.47
2016-10-27T03:54:25.528Z,11.48
2016-10-27T03:55:25.493Z,11.48
2016-10-27T03:56:25.467Z,11.45
2016-10-27T03:57:25.442Z,11.45
2016-10-27T03:58:25.412Z,11.41
2016-10-27T03:59:25.392Z,11.47
2016-10-27T04:00:25.359Z,11.45
2016-10-27T04:01:25.335Z,11.45
2016-10-27T04:02:25.309Z,11.47
2016-10-27T04:03:25.278Z,11.57
2016-10-27T04:04:25.250Z,11.59
2016-10-27T04:05:25.225Z,11.55
2016-10-27T04:06:25.197Z,11.54
2016-10-27T04:07:25.170Z,11.51
2016-10-27T04:08:25.144Z,11.55
2016-10-27T04:09:25.120Z,11.52
2016-10-27T04:10:25.093Z,11.59
2016-10-27T04:11:25.065Z,11.65
2016-10-27T04:12:25.039Z,11.57
2016-10-27T04:13:25.011Z,11.54
2016-10-27T04:14:24.985Z,11.62
2016-10-27T04:15:24.960Z,11.55
2016-10-27T04:16:24.936Z,11.59
2016-10-27T04:17:24.904Z,11.65
2016-10-27T04:18:24.880Z,11.52
2016-10-27T04:19:24.850Z,11.65
2016-10-27T04:20:24.829Z,11.63
2016-10-27T04:21:24.800Z,11.65
2016-10-27T04:22:24.777Z,11.7
2016-10-27T04:23:24.748Z,11.73
2016-10-27T04:24:24.717Z,11.72
2016-10-27T04:25:24.689Z,11.72
2016-10-27T04:26:24.661Z,11.72
2016-10-27T04:27:24.636Z,11.73
2016-10-27T04:28:24.647Z,11.77
2016-10-27T04:29:24.589Z,11.8
2016-10-27T04:30:24.559Z,11.73
2016-10-27T04:31:24.528Z,11.72
2016-10-27T04:32:24.505Z,11.8
2016-10-27T04:33:24.481Z,11.86
2016-10-27T04:34:24.462Z,11.83
2016-10-27T04:35:24.423Z,11.88
2016-10-27T04:36:24.401Z,11.88
2016-10-27T04:37:24.372Z,11.88
2016-10-27T04:38:24.346Z,11.87
2016-10-27T04:39:24.321Z,11.83
2016-10-27T04:40:24.300Z,11.9
2016-10-27T04:41:24.303Z,11.95
2016-10-27T04:42:24.239Z,11.91
2016-10-27T04:43:24.215Z,11.86
2016-10-27T04:44:24.187Z,11.81
2016-10-27T04:45:24.165Z,11.83
2016-10-27T04:46:24.135Z,11.87
2016-10-27T04:47:24.117Z,11.86
2016-10-27T04:48:24.085Z,11.99
2016-10-27T04:49:24.056Z,11.99
2016-10-27T04:50:24.028Z,11.94
2016-10-27T04:51:24.310Z,11.95
2016-10-27T04:52:23.980Z,11.95
2016-10-27T04:53:23.948Z,11.99
2016-10-27T04:54:23.930Z,11.9
2016-10-27T04:55:23.901Z,11.97
2016-10-27T04:56:23.873Z,11.91
2016-10-27T04:57:23.849Z,12.02
2016-10-27T04:58:23.821Z,11.86
2016-10-27T04:59:23.794Z,11.94
2016-10-27T05:00:23.776Z,11.91
2016-10-27T05:01:23.746Z,11.91
2016-10-27T05:02:23.714Z,12.03
2016-10-27T05:03:23.687Z,12.02
2016-10-27T05:04:23.665Z,12.04
2016-10-27T05:05:23.639Z,12.02
2016-10-27T05:06:23.610Z,11.94
2016-10-27T05:07:23.585Z,12.03
2016-10-27T05:08:23.561Z,11.99
2016-10-27T05:09:23.530Z,12
2016-10-27T05:10:23.503Z,12.04
2016-10-27T05:11:23.478Z,11.99
2016-10-27T05:12:23.454Z,12
2016-10-27T05:13:23.425Z,12.07
2016-10-27T05:14:23.404Z,12.02
2016-10-27T05:15:24.326Z,11.94
2016-10-27T05:16:25.373Z,11.97
2016-10-27T05:17:23.328Z,11.99
2016-10-27T05:18:23.295Z,12
2016-10-27T05:19:23.270Z,11.94
2016-10-27T05:20:23.245Z,11.94
2016-10-27T05:21:23.220Z,11.95
2016-10-27T05:22:23.190Z,12.06
2016-10-27T05:23:23.168Z,12.12
2016-10-27T05:24:23.141Z,12
2016-10-27T05:25:23.112Z,11.99
2016-10-27T05:26:23.083Z,12.06
2016-10-27T05:27:23.058Z,12.02
2016-10-27T05:28:23.029Z,12.02
2016-10-27T05:29:23.007Z,12.1
2016-10-27T05:30:22.979Z,12.07
2016-10-27T05:31:22.958Z,12.15
2016-10-27T05:32:22.934Z,12
2016-10-27T05:33:22.901Z,11.99
2016-10-27T05:34:22.875Z,12.13
2016-10-27T05:35:22.849Z,12.04
2016-10-27T05:36:22.821Z,12.1
2016-10-27T05:37:22.796Z,12.13
2016-10-27T05:38:22.808Z,12.02
2016-10-27T05:39:22.745Z,12.15
2016-10-27T05:40:22.716Z,12.04
2016-10-27T05:41:22.691Z,12.12
2016-10-27T05:42:22.667Z,12.07
2016-10-27T05:43:22.636Z,12.09
2016-10-27T05:44:22.614Z,12.04
2016-10-27T05:45:22.586Z,12.09
2016-10-27T05:46:22.556Z,12.17
2016-10-27T05:47:22.532Z,12.13
2016-10-27T05:48:22.503Z,12.1
2016-10-27T05:49:22.479Z,12.13
2016-10-27T05:50:22.456Z,12.1
2016-10-27T05:51:22.431Z,12.17
2016-10-27T05:52:22.401Z,12.13
2016-10-27T05:53:22.372Z,12.15
2016-10-27T05:54:22.350Z,12.2
2016-10-27T05:55:22.325Z,12.24
2016-10-27T05:56:22.295Z,12.24
2016-10-27T05:57:22.270Z,12.25
2016-10-27T05:58:22.242Z,12.22
2016-10-27T05:59:22.220Z,12.22
2016-10-27T06:00:22.190Z,12.27
2016-10-27T06:01:22.168Z,12.31
2016-10-27T06:02:22.138Z,12.22
2016-10-27T06:03:22.112Z,12.24
2016-10-27T06:04:22.089Z,12.29
2016-10-27T06:05:22.657Z,12.2
2016-10-27T06:06:22.033Z,12.36
2016-10-27T06:07:22.008Z,12.31
2016-10-27T06:08:21.982Z,12.31
2016-10-27T06:09:21.959Z,12.35
2016-10-27T06:10:21.927Z,12.36
2016-10-27T06:11:21.906Z,12.39
2016-10-27T06:12:21.886Z,12.35
2016-10-27T06:13:21.852Z,12.42
2016-10-27T06:14:21.828Z,12.35
2016-10-27T06:15:21.803Z,12.42
2016-10-27T06:16:21.772Z,12.35
2016-10-27T06:17:21.750Z,12.42
2016-10-27T06:18:21.722Z,12.46
2016-10-27T06:19:21.726Z,12.37
2016-10-27T06:20:21.672Z,12.37
2016-10-27T06:21:21.644Z,12.37
2016-10-27T06:22:21.618Z,12.35
2016-10-27T06:23:21.594Z,12.4
2016-10-27T06:24:21.566Z,12.47
2016-10-27T06:25:21.544Z,12.55
2016-10-27T06:26:21.519Z,12.54
2016-10-27T06:27:21.491Z,12.47
2016-10-27T06:28:21.460Z,12.4
2016-10-27T06:29:21.438Z,12.55
2016-10-27T06:30:21.409Z,12.49
2016-10-27T06:31:21.383Z,12.5
2016-10-27T06:32:21.358Z,12.43
2016-10-27T06:33:21.335Z,12.47
2016-10-27T06:34:21.308Z,12.5
2016-10-27T06:35:21.281Z,12.47
2016-10-27T06:36:21.255Z,12.46
2016-10-27T06:37:21.228Z,12.49
2016-10-27T06:38:21.206Z,12.47
2016-10-27T06:39:21.176Z,12.49
2016-10-27T06:40:21.149Z,12.57
2016-10-27T06:41:21.126Z,12.54
2016-10-27T06:42:21.100Z,12.58
2016-10-27T06:43:21.077Z,12.47
2016-10-27T06:44:21.348Z,12.46
2016-10-27T06:45:21.024Z,12.49
2016-10-27T06:46:20.993Z,12.53
2016-10-27T06:47:21.004Z,12.53
2016-10-27T06:48:20.944Z,12.47
2016-10-27T06:49:20.920Z,12.55
2016-10-27T06:50:20.891Z,12.62
2016-10-27T06:51:20.865Z,12.45
2016-10-27T06:52:20.837Z,12.49
2016-10-27T06:53:20.813Z,12.46
2016-10-27T06:54:20.786Z,12.58
2016-10-27T06:55:20.762Z,12.61
2016-10-27T06:56:20.736Z,12.53
2016-10-27T06:57:20.710Z,12.45
2016-10-27T06:58:20.683Z,12.49
2016-10-27T06:59:20.660Z,12.54
2016-10-27T07:00:20.634Z,12.57
2016-10-27T07:01:20.607Z,12.6
2016-10-27T07:02:20.584Z,12.55
2016-10-27T07:03:20.556Z,12.61
2016-10-27T07:04:20.567Z,12.6
2016-10-27T07:05:20.504Z,12.6
2016-10-27T07:06:20.777Z,12.55
2016-10-27T07:07:20.453Z,12.58
2016-10-27T07:08:20.425Z,12.6
2016-10-27T07:09:20.397Z,12.61
2016-10-27T07:10:20.375Z,12.64
2016-10-27T07:11:20.353Z,12.7
2016-10-27T07:12:20.322Z,12.7
2016-10-27T07:13:20.300Z,12.62
2016-10-27T07:14:20.270Z,12.73
2016-10-27T07:15:20.250Z,12.78
2016-10-27T07:16:20.222Z,12.8
2016-10-27T07:17:20.195Z,12.75
2016-10-27T07:18:20.172Z,12.78
2016-10-27T07:19:20.147Z,12.8
2016-10-27T07:20:20.119Z,12.79
2016-10-27T07:21:20.094Z,12.78
2016-10-27T07:22:20.066Z,12.82
2016-10-27T07:23:20.051Z,12.79
2016-10-27T07:24:20.020Z,12.86
2016-10-27T07:25:19.993Z,12.82
2016-10-27T07:26:19.967Z,12.85
2016-10-27T07:27:19.941Z,12.87
2016-10-27T07:28:19.918Z,12.86
2016-10-27T07:29:19.894Z,12.86
2016-10-27T07:30:19.864Z,12.91
2016-10-27T07:31:19.841Z,12.9
2016-10-27T07:32:19.814Z,12.91
2016-10-27T07:33:19.788Z,13.04
2016-10-27T07:34:19.762Z,13
2016-10-27T07:35:19.738Z,12.98
2016-10-27T07:36:19.710Z,13
2016-10-27T07:37:19.687Z,13
2016-10-27T07:38:19.664Z,13.03
2016-10-27T07:39:19.638Z,13.05
2016-10-27T07:40:19.622Z,13.15
2016-10-27T07:41:19.589Z,13.18
2016-10-27T07:42:19.564Z,13.15
2016-10-27T07:43:19.586Z,13.19
2016-10-27T07:44:19.514Z,13.22
2016-10-27T07:45:19.491Z,13.18
2016-10-27T07:46:19.463Z,13.27
2016-10-27T07:47:19.436Z,13.22
2016-10-27T07:48:19.448Z,13.27
2016-10-27T07:49:19.388Z,13.28
2016-10-27T07:50:19.365Z,13.31
2016-10-27T07:51:19.342Z,13.3
2016-10-27T07:52:19.316Z,13.41
2016-10-27T07:53:19.291Z,13.38
2016-10-27T07:54:19.268Z,13.41
2016-10-27T07:55:19.240Z,13.47
2016-10-27T07:56:19.220Z,13.46
2016-10-27T07:57:19.196Z,13.44
2016-10-27T07:58:19.171Z,13.5
2016-10-27T07:59:19.861Z,13.49
2016-10-27T08:00:19.120Z,13.5
2016-10-27T08:01:19.099Z,13.57
2016-10-27T08:02:19.075Z,13.57
2016-10-27T08:03:19.043Z,13.57
2016-10-27T08:04:19.024Z,13.56
2016-10-27T08:05:18.999Z,13.62
2016-10-27T08:06:19.018Z,13.6
2016-10-27T08:07:18.954Z,13.72
2016-10-27T08:08:19.225Z,13.72
2016-10-27T08:09:18.995Z,13.7
2016-10-27T08:10:18.878Z,13.77
2016-10-27T08:11:18.855Z,13.75
2016-10-27T08:12:18.831Z,13.74
2016-10-27T08:13:18.808Z,13.75
2016-10-27T08:14:18.781Z,13.77
2016-10-27T08:15:18.764Z,13.75
2016-10-27T08:16:18.766Z,13.7
2016-10-27T08:17:18.711Z,13.86
2016-10-27T08:18:18.683Z,13.86
2016-10-27T08:19:18.666Z,13.83
2016-10-27T08:20:18.637Z,13.86
2016-10-27T08:21:18.617Z,13.86
2016-10-27T08:22:18.588Z,13.92
2016-10-27T08:23:18.569Z,13.87
2016-10-27T08:24:18.544Z,13.87
2016-10-27T08:25:18.820Z,13.95
2016-10-27T08:26:18.495Z,14
2016-10-27T08:27:18.598Z,13.99
2016-10-27T08:28:18.452Z,14.08
2016-10-27T08:29:18.423Z,14.08
2016-10-27T08:30:18.405Z,14.12
2016-10-27T08:31:18.677Z,14.17
2016-10-27T08:32:18.359Z,14.15
2016-10-27T08:33:18.334Z,14.11
2016-10-27T08:34:18.308Z,14.17
2016-10-27T08:35:18.285Z,14.15
2016-10-27T08:36:18.259Z,14.17
2016-10-27T08:37:18.236Z,14.22
2016-10-27T08:38:18.217Z,14.22
2016-10-27T08:39:18.224Z,14.25
2016-10-27T08:40:18.169Z,14.28
2016-10-27T08:41:18.157Z,14.25
2016-10-27T08:42:18.125Z,14.25
2016-10-27T08:43:18.103Z,14.23
2016-10-27T08:44:18.173Z,14.18
2016-10-27T08:45:18.064Z,14.33
2016-10-27T08:46:18.039Z,14.33
2016-10-27T08:47:18.010Z,14.3
2016-10-27T08:48:17.989Z,14.37
2016-10-27T08:49:17.971Z,14.37
2016-10-27T08:50:17.942Z,14.43
2016-10-27T08:51:17.920Z,14.45
2016-10-27T08:52:17.900Z,14.43
2016-10-27T08:53:18.172Z,14.59
2016-10-27T08:54:17.850Z,14.63
2016-10-27T08:55:17.829Z,14.62
2016-10-27T08:56:17.807Z,14.6
2016-10-27T08:57:17.781Z,14.55
2016-10-27T08:58:17.786Z,14.62
2016-10-27T08:59:17.766Z,14.62
2016-10-27T09:00:17.718Z,14.62
2016-10-27T09:01:17.699Z,14.63
2016-10-27T09:02:17.966Z,14.62
2016-10-27T09:03:17.654Z,14.59
2016-10-27T09:04:17.629Z,14.63
2016-10-27T09:05:17.605Z,14.6
2016-10-27T09:06:17.581Z,14.66
2016-10-27T09:07:17.564Z,14.58
2016-10-27T09:08:17.541Z,14.6
2016-10-27T09:09:17.514Z,14.6
2016-10-27T09:10:17.493Z,14.73
2016-10-27T09:11:18.129Z,14.7
2016-10-27T09:12:17.448Z,14.88
2016-10-27T09:13:17.427Z,14.86
2016-10-27T09:14:17.802Z,14.88
2016-10-27T09:15:17.384Z,14.99
2016-10-27T09:16:17.658Z,14.94
2016-10-27T09:17:17.343Z,14.89
2016-10-27T09:18:17.315Z,14.94
2016-10-27T09:19:17.292Z,14.97
2016-10-27T09:20:17.268Z,14.85
2016-10-27T09:21:17.247Z,14.91
2016-10-27T09:22:17.224Z,14.96
2016-10-27T09:23:17.202Z,14.91
2016-10-27T09:24:17.178Z,14.91
2016-10-27T09:25:17.155Z,14.97
2016-10-27T09:26:17.138Z,14.97
2016-10-27T09:27:17.117Z,14.94
2016-10-27T09:28:17.093Z,14.99
2016-10-27T09:29:17.070Z,14.99
2016-10-27T09:30:17.054Z,14.92
2016-10-27T09:31:17.043Z,15.14
2016-10-27T09:32:17.007Z,15.1
2016-10-27T09:33:16.984Z,15.06
2016-10-27T09:34:16.998Z,15.09
2016-10-27T09:35:16.975Z,14.97
2016-10-27T09:36:16.916Z,15
2016-10-27T09:37:17.248Z,14.86
2016-10-27T09:38:16.870Z,14.86
2016-10-27T09:39:16.844Z,14.96
2016-10-27T09:40:16.830Z,14.94
2016-10-27T09:41:16.805Z,14.88
2016-10-27T09:42:16.784Z,14.88
2016-10-27T09:43:16.757Z,14.85
2016-10-27T09:44:16.744Z,14.86
2016-10-27T09:45:16.746Z,14.94
2016-10-27T09:46:16.691Z,14.92
2016-10-27T09:47:16.672Z,14.96
2016-10-27T09:48:16.649Z,15.03
2016-10-27T09:49:16.629Z,15
2016-10-27T09:50:16.607Z,15.09
2016-10-27T09:51:16.589Z,15.04
2016-10-27T09:52:16.564Z,14.96
2016-10-27T09:53:16.538Z,15.07
2016-10-27T09:54:16.519Z,15.1
2016-10-27T09:55:16.494Z,15.06
2016-10-27T09:56:16.477Z,15.14
2016-10-27T09:57:16.461Z,15.06
2016-10-27T09:58:16.470Z,15.22
2016-10-27T09:59:16.409Z,15.22
2016-10-27T10:00:16.415Z,15.21
2016-10-27T10:01:16.366Z,15.11
2016-10-27T10:02:16.443Z,15.25
2016-10-27T10:03:16.327Z,15.28
2016-10-27T10:04:16.301Z,15.19
2016-10-27T10:05:16.279Z,15.19
2016-10-27T10:06:16.254Z,15.22
2016-10-27T10:07:16.250Z,15.21
2016-10-27T10:08:16.215Z,15.18
2016-10-27T10:09:16.194Z,15.22
2016-10-27T10:10:16.173Z,15.33
2016-10-27T10:11:16.150Z,15.25
2016-10-27T10:12:16.127Z,15.35
2016-10-27T10:13:16.104Z,15.25
2016-10-27T10:14:16.087Z,15.24
2016-10-27T10:15:16.068Z,15.28
2016-10-27T10:16:16.041Z,15.22
2016-10-27T10:17:16.021Z,15.24
2016-10-27T10:18:15.996Z,15.35
2016-10-27T10:19:15.977Z,15.36
2016-10-27T10:20:15.955Z,15.42
2016-10-27T10:21:15.936Z,15.4
2016-10-27T10:22:16.135Z,15.42
2016-10-27T10:23:15.888Z,15.44
2016-10-27T10:24:15.874Z,15.44
2016-10-27T10:25:15.849Z,15.43
2016-10-27T10:26:16.456Z,15.46
2016-10-27T10:27:15.804Z,15.51
2016-10-27T10:28:15.782Z,15.47
2016-10-27T10:29:15.764Z,15.43
2016-10-27T10:30:15.745Z,15.47
2016-10-27T10:31:15.719Z,15.37
2016-10-27T10:32:15.704Z,15.46
2016-10-27T10:33:15.702Z,15.28
2016-10-27T10:34:15.685Z,15.29
2016-10-27T10:35:15.632Z,15.28
2016-10-27T10:36:15.611Z,15.33
2016-10-27T10:37:15.594Z,15.25
2016-10-27T10:38:15.568Z,15.24
2016-10-27T10:39:15.547Z,15.27
2016-10-27T10:40:15.568Z,15.24
2016-10-27T10:41:15.504Z,15.21
2016-10-27T10:42:15.482Z,15.25
2016-10-27T10:43:15.462Z,15.39
2016-10-27T10:44:15.443Z,15.33
2016-10-27T10:45:15.420Z,15.46
2016-10-27T10:46:15.393Z,15.4
2016-10-27T10:47:15.376Z,15.42
2016-10-27T10:48:15.370Z,15.51
2016-10-27T10:49:15.326Z,15.58
2016-10-27T10:50:15.307Z,15.55
2016-10-27T10:51:15.287Z,15.65
2016-10-27T10:52:15.267Z,15.65
2016-10-27T10:53:15.247Z,15.65
2016-10-27T10:54:15.222Z,15.76
2016-10-27T10:55:15.201Z,15.86
2016-10-27T10:56:15.183Z,15.79
2016-10-27T10:57:15.163Z,15.8
2016-10-27T10:58:15.139Z,15.8
2016-10-27T10:59:15.118Z,15.79
2016-10-27T11:00:15.136Z,15.76
2016-10-27T11:01:15.082Z,15.77
2016-10-27T11:02:15.056Z,15.83
2016-10-27T11:03:15.041Z,15.84
2016-10-27T11:04:15.018Z,15.79
2016-10-27T11:05:14.998Z,15.86
2016-10-27T11:06:14.974Z,15.75
2016-10-27T11:07:14.956Z,15.76
2016-10-27T11:08:14.936Z,15.82
2016-10-27T11:09:14.915Z,15.75
2016-10-27T11:10:14.927Z,15.86
2016-10-27T11:11:14.882Z,15.79
2016-10-27T11:12:14.858Z,15.76
2016-10-27T11:13:14.832Z,15.76
2016-10-27T11:14:14.810Z,15.84
2016-10-27T11:15:14.792Z,15.76
2016-10-27T11:16:14.774Z,15.77
2016-10-27T11:17:14.750Z,15.72
2016-10-27T11:18:14.735Z,15.76
2016-10-27T11:19:14.716Z,15.82
2016-10-27T11:20:14.687Z,15.82
2016-10-27T11:21:14.669Z,15.79
2016-10-27T11:22:14.646Z,15.83
2016-10-27T11:23:14.624Z,15.9
2016-10-27T11:24:14.604Z,16.01
2016-10-27T11:25:14.589Z,16.08
2016-10-27T11:26:14.563Z,16.1
2016-10-27T11:27:14.587Z,16.26
2016-10-27T11:28:14.568Z,16.35
2016-10-27T11:29:14.502Z,16.38
2016-10-27T11:30:14.483Z,16.47
2016-10-27T11:31:14.465Z,16.5
2016-10-27T11:32:14.442Z,16.57
2016-10-27T11:33:14.421Z,16.69
2016-10-27T11:34:14.404Z,16.66
2016-10-27T11:35:14.382Z,16.6
2016-10-27T11:36:14.361Z,16.65
2016-10-27T11:37:14.343Z,16.61
2016-10-27T11:38:14.320Z,16.58
2016-10-27T11:39:14.309Z,16.64
2016-10-27T11:40:14.288Z,16.61
2016-10-27T11:41:14.269Z,16.54
2016-10-27T11:42:14.252Z,16.58
2016-10-27T11:43:14.224Z,16.58
2016-10-27T11:44:14.205Z,16.53
2016-10-27T11:45:14.184Z,16.5
2016-10-27T11:46:14.167Z,16.61
2016-10-27T11:47:14.142Z,16.65
2016-10-27T11:48:14.124Z,16.68
2016-10-27T11:49:14.110Z,16.64
2016-10-27T11:50:14.087Z,16.76
2016-10-27T11:51:14.063Z,16.79
2016-10-27T11:52:14.044Z,16.83
2016-10-27T11:53:14.023Z,16.86
2016-10-27T11:54:14.007Z,16.89
2016-10-27T11:55:13.986Z,16.9
2016-10-27T11:56:13.970Z,16.94
2016-10-27T11:57:13.951Z,16.84
2016-10-27T11:58:13.931Z,16.87
2016-10-27T11:59:13.905Z,16.72
2016-10-27T12:00:13.883Z,16.75
2016-10-27T12:01:13.863Z,16.79
2016-10-27T12:02:13.851Z,16.81
2016-10-27T12:03:13.828Z,16.71
2016-10-27T12:04:13.811Z,16.66
2016-10-27T12:05:13.786Z,16.56
2016-10-27T12:06:13.764Z,16.54
2016-10-27T12:07:13.746Z,16.54
2016-10-27T12:08:13.730Z,16.56
2016-10-27T12:09:13.705Z,16.53
2016-10-27T12:10:13.683Z,16.53
2016-10-27T12:11:13.669Z,16.53
2016-10-27T12:12:13.640Z,16.53
2016-10-27T12:13:13.621Z,16.6
2016-10-27T12:14:13.607Z,16.56
2016-10-27T12:15:13.938Z,16.65
2016-10-27T12:16:13.707Z,16.66
2016-10-27T12:17:13.538Z,16.68
2016-10-27T12:18:13.522Z,16.71
2016-10-27T12:19:13.507Z,16.72
2016-10-27T12:20:13.481Z,16.79
2016-10-27T12:21:13.459Z,16.79
2016-10-27T12:22:13.445Z,16.69
2016-10-27T12:23:13.416Z,16.79
2016-10-27T12:24:13.411Z,16.87
2016-10-27T12:25:13.381Z,16.96
2016-10-27T12:26:13.397Z,16.94
2016-10-27T12:27:13.338Z,16.96
2016-10-27T12:28:13.324Z,17.01
2016-10-27T12:29:13.302Z,16.99
2016-10-27T12:30:13.280Z,16.97
2016-10-27T12:31:13.267Z,16.84
2016-10-27T12:32:13.244Z,16.84
2016-10-27T12:33:13.223Z,16.86
2016-10-27T12:34:13.200Z,16.75
2016-10-27T12:35:13.183Z,16.74
2016-10-27T12:36:13.168Z,16.71
2016-10-27T12:37:13.146Z,16.68
2016-10-27T12:38:13.124Z,16.68
2016-10-27T12:39:13.101Z,16.61
2016-10-27T12:40:13.088Z,16.68
2016-10-27T12:41:13.099Z,16.66
2016-10-27T12:42:13.045Z,16.68
2016-10-27T12:43:13.025Z,16.74
2016-10-27T12:44:13.005Z,16.68
2016-10-27T12:45:12.983Z,16.69
2016-10-27T12:46:12.963Z,16.79
2016-10-27T12:47:12.938Z,16.78
2016-10-27T12:48:12.920Z,16.78
2016-10-27T12:49:12.901Z,16.68
2016-10-27T12:50:12.881Z,16.74
2016-10-27T12:51:12.980Z,16.72
2016-10-27T12:52:12.842Z,16.87
2016-10-27T12:53:12.821Z,16.93
2016-10-27T12:54:12.799Z,16.86
2016-10-27T12:55:13.033Z,16.87
2016-10-27T12:56:12.761Z,16.69